sensor_id;sensor_type;location;lat;lon;timestamp;pressure;altitude;pressure_sealevel;temperature;humidity
38227;BME280;24026;49.446;8.576;2023-11-21T00:00:20;99876.88;;;14.36;60.20
38227;BME280;24026;49.446;8.576;2023-11-21T00:02:41;99876.09;;;14.35;60.03
38227;BME280;24026;49.446;8.576;2023-11-21T00:05:02;99875.00;;;14.36;59.94
38227;BME280;24026;49.446;8.576;2023-11-21T00:07:23;99872.59;;;14.35;60.14
38227;BME280;24026;49.446;8.576;2023-11-21T00:09:44;99871.03;;;14.34;60.30
38227;BME280;24026;49.446;8.576;2023-11-21T00:12:04;99879.03;;;14.34;60.18
38227;BME280;24026;49.446;8.576;2023-11-21T00:14:25;99879.81;;;14.34;60.13
38227;BME280;24026;49.446;8.576;2023-11-21T00:16:45;99877.16;;;14.34;60.24
38227;BME280;24026;49.446;8.576;2023-11-21T00:19:05;99873.69;;;14.34;60.14
38227;BME280;24026;49.446;8.576;2023-11-21T00:21:26;99872.09;;;14.33;60.33
38227;BME280;24026;49.446;8.576;2023-11-21T00:23:47;99878.22;;;14.33;60.39
38227;BME280;24026;49.446;8.576;2023-11-21T00:26:08;99879.31;;;14.32;60.24
38227;BME280;24026;49.446;8.576;2023-11-21T00:28:47;99873.97;;;14.32;60.41
38227;BME280;24026;49.446;8.576;2023-11-21T00:31:07;99873.19;;;14.32;60.25
38227;BME280;24026;49.446;8.576;2023-11-21T00:33:28;99875.03;;;14.31;60.39
38227;BME280;24026;49.446;8.576;2023-11-21T00:35:48;99869.69;;;14.31;60.43
38227;BME280;24026;49.446;8.576;2023-11-21T00:38:08;99863.56;;;14.31;60.28
38227;BME280;24026;49.446;8.576;2023-11-21T00:40:29;99867.84;;;14.32;60.37
38227;BME280;24026;49.446;8.576;2023-11-21T00:42:50;99862.75;;;14.30;60.18
38227;BME280;24026;49.446;8.576;2023-11-21T00:45:11;99864.63;;;14.30;60.81
38227;BME280;24026;49.446;8.576;2023-11-21T00:47:31;99866.50;;;14.29;60.45
38227;BME280;24026;49.446;8.576;2023-11-21T00:49:52;99869.97;;;14.30;60.46
38227;BME280;24026;49.446;8.576;2023-11-21T00:52:13;99864.91;;;14.28;60.58
38227;BME280;24026;49.446;8.576;2023-11-21T00:54:33;99866.50;;;14.29;60.69
38227;BME280;24026;49.446;8.576;2023-11-21T00:56:53;99859.53;;;14.28;60.54
38227;BME280;24026;49.446;8.576;2023-11-21T00:59:14;99866.78;;;14.27;60.62
38227;BME280;24026;49.446;8.576;2023-11-21T01:01:34;99864.91;;;14.28;60.55
38227;BME280;24026;49.446;8.576;2023-11-21T01:03:55;99860.63;;;14.27;60.60
38227;BME280;24026;49.446;8.576;2023-11-21T01:06:15;99863.31;;;14.27;60.45
38227;BME280;24026;49.446;8.576;2023-11-21T01:08:36;99872.41;;;14.26;60.67
38227;BME280;24026;49.446;8.576;2023-11-21T01:10:56;99865.16;;;14.26;60.37
38227;BME280;24026;49.446;8.576;2023-11-21T01:13:17;99876.97;;;14.25;60.60
38227;BME280;24026;49.446;8.576;2023-11-21T01:15:37;99883.88;;;14.26;60.67
38227;BME280;24026;49.446;8.576;2023-11-21T01:17:58;99878.84;;;14.25;60.74
38227;BME280;24026;49.446;8.576;2023-11-21T01:20:18;99876.16;;;14.25;60.78
38227;BME280;24026;49.446;8.576;2023-11-21T01:22:39;99884.97;;;14.25;60.59
38227;BME280;24026;49.446;8.576;2023-11-21T01:24:59;99884.97;;;14.25;60.57
38227;BME280;24026;49.446;8.576;2023-11-21T01:27:20;99878.03;;;14.24;60.63
38227;BME280;24026;49.446;8.576;2023-11-21T01:29:40;99878.84;;;14.25;60.82
38227;BME280;24026;49.446;8.576;2023-11-21T01:32:02;99882.31;;;14.25;60.79
38227;BME280;24026;49.446;8.576;2023-11-21T01:34:23;99878.03;;;14.24;60.66
38227;BME280;24026;49.446;8.576;2023-11-21T01:36:46;99882.56;;;14.24;60.75
38227;BME280;24026;49.446;8.576;2023-11-21T01:39:06;99875.63;;;14.23;60.76
38227;BME280;24026;49.446;8.576;2023-11-21T01:41:28;99879.91;;;14.24;60.72
38227;BME280;24026;49.446;8.576;2023-11-21T01:43:49;99886.03;;;14.24;60.77
38227;BME280;24026;49.446;8.576;2023-11-21T01:46:11;99878.28;;;14.23;60.81
38227;BME280;24026;49.446;8.576;2023-11-21T01:48:32;99876.44;;;14.23;60.78
38227;BME280;24026;49.446;8.576;2023-11-21T01:50:53;99885.53;;;14.22;60.79
38227;BME280;24026;49.446;8.576;2023-11-21T01:53:14;99882.84;;;14.22;60.77
38227;BME280;24026;49.446;8.576;2023-11-21T01:55:35;99876.72;;;14.22;60.86
38227;BME280;24026;49.446;8.576;2023-11-21T01:57:56;99870.56;;;14.21;60.92
38227;BME280;24026;49.446;8.576;2023-11-21T02:00:17;99874.84;;;14.22;60.98
38227;BME280;24026;49.446;8.576;2023-11-21T02:02:39;99873.22;;;14.21;60.83
38227;BME280;24026;49.446;8.576;2023-11-21T02:04:59;99876.72;;;14.22;60.87
38227;BME280;24026;49.446;8.576;2023-11-21T02:07:20;99875.91;;;14.21;60.80
38227;BME280;24026;49.446;8.576;2023-11-21T02:09:40;99872.44;;;14.21;60.93
38227;BME280;24026;49.446;8.576;2023-11-21T02:12:02;99875.09;;;14.21;60.91
38227;BME280;24026;49.446;8.576;2023-11-21T02:14:27;99871.66;;;14.20;61.01
38227;BME280;24026;49.446;8.576;2023-11-21T02:16:50;99868.97;;;14.20;61.08
38227;BME280;24026;49.446;8.576;2023-11-21T02:19:13;99875.38;;;14.19;61.15
38227;BME280;24026;49.446;8.576;2023-11-21T02:21:36;99876.19;;;14.20;61.11
38227;BME280;24026;49.446;8.576;2023-11-21T02:24:00;99879.66;;;14.20;60.92
38227;BME280;24026;49.446;8.576;2023-11-21T02:26:20;99877.00;;;14.20;60.82
38227;BME280;24026;49.446;8.576;2023-11-21T02:28:41;99878.06;;;14.19;61.03
38227;BME280;24026;49.446;8.576;2023-11-21T02:31:02;99883.41;;;14.19;61.04
38227;BME280;24026;49.446;8.576;2023-11-21T02:33:24;99879.94;;;14.19;61.04
38227;BME280;24026;49.446;8.576;2023-11-21T02:35:45;99879.94;;;14.19;60.91
38227;BME280;24026;49.446;8.576;2023-11-21T02:38:06;99876.47;;;14.18;61.07
38227;BME280;24026;49.446;8.576;2023-11-21T02:42:56;99879.16;;;14.18;60.86
38227;BME280;24026;49.446;8.576;2023-11-21T02:45:22;99879.94;;;14.19;61.07
38227;BME280;24026;49.446;8.576;2023-11-21T02:47:44;99877.53;;;14.17;61.10
38227;BME280;24026;49.446;8.576;2023-11-21T02:53:21;99875.16;;;14.16;61.08
38227;BME280;24026;49.446;8.576;2023-11-21T02:55:42;99877.81;;;14.16;61.16
38227;BME280;24026;49.446;8.576;2023-11-21T02:58:02;99867.91;;;14.16;61.12
38227;BME280;24026;49.446;8.576;2023-11-21T03:00:26;99867.91;;;14.16;61.25
38227;BME280;24026;49.446;8.576;2023-11-21T03:02:48;99874.34;;;14.15;61.34
38227;BME280;24026;49.446;8.576;2023-11-21T03:05:09;99870.59;;;14.16;61.30
38227;BME280;24026;49.446;8.576;2023-11-21T03:07:29;99873.25;;;14.16;61.10
38227;BME280;24026;49.446;8.576;2023-11-21T03:09:50;99869.81;;;14.16;61.37
38227;BME280;24026;49.446;8.576;2023-11-21T03:12:10;99867.91;;;14.16;61.13
38227;BME280;24026;49.446;8.576;2023-11-21T03:14:32;99863.66;;;14.15;61.33
38227;BME280;24026;49.446;8.576;2023-11-21T03:16:53;99862.56;;;14.16;61.47
38227;BME280;24026;49.446;8.576;2023-11-21T03:19:14;99869.81;;;14.16;61.14
38227;BME280;24026;49.446;8.576;2023-11-21T03:21:35;99865.25;;;14.16;61.42
38227;BME280;24026;49.446;8.576;2023-11-21T03:23:56;99869.00;;;14.15;61.41
38227;BME280;24026;49.446;8.576;2023-11-21T03:26:16;99871.69;;;14.15;61.40
38227;BME280;24026;49.446;8.576;2023-11-21T03:28:37;99877.03;;;14.15;61.39
38227;BME280;24026;49.446;8.576;2023-11-21T03:30:57;99876.22;;;14.15;61.32
38227;BME280;24026;49.446;8.576;2023-11-21T03:33:17;99873.81;;;14.13;61.43
38227;BME280;24026;49.446;8.576;2023-11-21T03:35:38;99884.22;;;14.15;61.30
38227;BME280;24026;49.446;8.576;2023-11-21T03:37:58;99885.31;;;14.14;61.33
38227;BME280;24026;49.446;8.576;2023-11-21T03:40:19;99884.50;;;14.13;61.50
38227;BME280;24026;49.446;8.576;2023-11-21T03:42:40;99886.09;;;14.14;61.58
38227;BME280;24026;49.446;8.576;2023-11-21T03:45:02;99888.00;;;14.14;61.52
38227;BME280;24026;49.446;8.576;2023-11-21T03:47:23;99875.69;;;14.13;61.34
38227;BME280;24026;49.446;8.576;2023-11-21T03:49:44;99887.16;;;14.13;61.54
38227;BME280;24026;49.446;8.576;2023-11-21T03:52:05;99881.81;;;14.13;61.58
38227;BME280;24026;49.446;8.576;2023-11-21T03:54:27;99884.50;;;14.13;61.60
38227;BME280;24026;49.446;8.576;2023-11-21T03:56:48;99889.06;;;14.13;61.42
38227;BME280;24026;49.446;8.576;2023-11-21T03:59:09;99882.91;;;14.12;61.55
38227;BME280;24026;49.446;8.576;2023-11-21T04:01:29;99884.50;;;14.13;61.45
38227;BME280;24026;49.446;8.576;2023-11-21T04:03:50;99888.25;;;14.12;61.54
38227;BME280;24026;49.446;8.576;2023-11-21T04:06:11;99884.81;;;14.12;61.74
38227;BME280;24026;49.446;8.576;2023-11-21T04:08:31;99889.31;;;14.11;61.52
38227;BME280;24026;49.446;8.576;2023-11-21T04:10:53;99890.16;;;14.12;61.52
38227;BME280;24026;49.446;8.576;2023-11-21T04:13:15;99895.50;;;14.12;61.36
38227;BME280;24026;49.446;8.576;2023-11-21T04:15:35;99893.88;;;14.11;61.73
38227;BME280;24026;49.446;8.576;2023-11-21T04:17:55;99897.34;;;14.11;61.83
38227;BME280;24026;49.446;8.576;2023-11-21T04:20:16;99905.38;;;14.11;61.62
38227;BME280;24026;49.446;8.576;2023-11-21T04:22:39;99908.03;;;14.11;61.46
38227;BME280;24026;49.446;8.576;2023-11-21T04:25:04;99910.72;;;14.11;61.64
38227;BME280;24026;49.446;8.576;2023-11-21T04:27:24;99913.38;;;14.11;61.80
38227;BME280;24026;49.446;8.576;2023-11-21T04:29:44;99914.47;;;14.10;61.69
38227;BME280;24026;49.446;8.576;2023-11-21T04:32:05;99916.06;;;14.11;61.65
38227;BME280;24026;49.446;8.576;2023-11-21T04:34:25;99911.81;;;14.10;61.75
38227;BME280;24026;49.446;8.576;2023-11-21T04:36:46;99911.81;;;14.10;61.71
38227;BME280;24026;49.446;8.576;2023-11-21T04:39:06;99917.94;;;14.11;61.64
38227;BME280;24026;49.446;8.576;2023-11-21T04:41:27;99916.06;;;14.11;61.74
38227;BME280;24026;49.446;8.576;2023-11-21T04:43:47;99919.81;;;14.10;61.84
38227;BME280;24026;49.446;8.576;2023-11-21T04:46:09;99921.41;;;14.11;61.73
38227;BME280;24026;49.446;8.576;2023-11-21T04:48:29;99922.50;;;14.10;61.66
38227;BME280;24026;49.446;8.576;2023-11-21T04:50:50;99923.28;;;14.11;61.86
38227;BME280;24026;49.446;8.576;2023-11-21T04:53:10;99919.81;;;14.10;61.77
38227;BME280;24026;49.446;8.576;2023-11-21T04:55:33;99927.84;;;14.10;61.81
38227;BME280;24026;49.446;8.576;2023-11-21T04:57:54;99927.84;;;14.10;61.88
38227;BME280;24026;49.446;8.576;2023-11-21T05:00:15;99938.53;;;14.10;61.73
38227;BME280;24026;49.446;8.576;2023-11-21T05:02:36;99941.19;;;14.10;61.70
38227;BME280;24026;49.446;8.576;2023-11-21T05:04:58;99936.63;;;14.11;61.89
38227;BME280;24026;49.446;8.576;2023-11-21T05:07:18;99935.03;;;14.09;61.84
38227;BME280;24026;49.446;8.576;2023-11-21T05:09:43;99936.91;;;14.09;61.84
38227;BME280;24026;49.446;8.576;2023-11-21T05:12:06;99945.72;;;14.09;61.99
38227;BME280;24026;49.446;8.576;2023-11-21T05:14:27;99938.53;;;14.10;61.83
38227;BME280;24026;49.446;8.576;2023-11-21T05:16:47;99935.03;;;14.09;61.67
38227;BME280;24026;49.446;8.576;2023-11-21T05:19:07;99943.88;;;14.10;61.80
38227;BME280;24026;49.446;8.576;2023-11-21T05:21:30;99946.53;;;14.10;62.00
38227;BME280;24026;49.446;8.576;2023-11-21T05:23:53;99952.66;;;14.11;61.87
38227;BME280;24026;49.446;8.576;2023-11-21T05:26:13;99950.28;;;14.09;61.84
38227;BME280;24026;49.446;8.576;2023-11-21T05:28:34;99952.16;;;14.08;61.78
38227;BME280;24026;49.446;8.576;2023-11-21T05:30:54;99957.22;;;14.10;61.89
38227;BME280;24026;49.446;8.576;2023-11-21T05:33:15;99963.63;;;14.09;62.01
38227;BME280;24026;49.446;8.576;2023-11-21T05:35:36;99963.63;;;14.09;61.96
38227;BME280;24026;49.446;8.576;2023-11-21T05:37:56;99977.00;;;14.09;62.11
38227;BME280;24026;49.446;8.576;2023-11-21T05:40:17;99979.66;;;14.09;61.85
38227;BME280;24026;49.446;8.576;2023-11-21T05:42:39;99977.00;;;14.09;61.75
38227;BME280;24026;49.446;8.576;2023-11-21T05:45:00;99982.34;;;14.09;61.86
38227;BME280;24026;49.446;8.576;2023-11-21T05:47:31;99984.22;;;14.08;62.10
38227;BME280;24026;49.446;8.576;2023-11-21T05:49:51;99987.97;;;14.07;61.98
38227;BME280;24026;49.446;8.576;2023-11-21T05:52:12;99985.00;;;14.09;62.13
38227;BME280;24026;49.446;8.576;2023-11-21T05:54:32;99983.94;;;14.10;62.10
38227;BME280;24026;49.446;8.576;2023-11-21T05:56:54;99990.34;;;14.09;61.97
38227;BME280;24026;49.446;8.576;2023-11-21T05:59:15;99991.41;;;14.08;61.90
38227;BME280;24026;49.446;8.576;2023-11-21T06:01:36;99993.03;;;14.09;62.06
38227;BME280;24026;49.446;8.576;2023-11-21T06:03:59;99997.59;;;14.08;62.01
38227;BME280;24026;49.446;8.576;2023-11-21T06:06:19;100005.59;;;14.08;62.03
38227;BME280;24026;49.446;8.576;2023-11-21T06:08:39;99999.16;;;14.09;62.05
38227;BME280;24026;49.446;8.576;2023-11-21T06:11:00;100006.38;;;14.09;61.86
38227;BME280;24026;49.446;8.576;2023-11-21T06:13:21;100007.44;;;14.08;61.93
38227;BME280;24026;49.446;8.576;2023-11-21T06:15:44;100002.94;;;14.08;62.03
38227;BME280;24026;49.446;8.576;2023-11-21T06:18:05;100013.34;;;14.10;62.05
38227;BME280;24026;49.446;8.576;2023-11-21T06:20:30;100012.53;;;14.09;62.13
38227;BME280;24026;49.446;8.576;2023-11-21T06:22:51;100012.53;;;14.09;62.11
38227;BME280;24026;49.446;8.576;2023-11-21T06:25:12;100014.94;;;14.11;62.13
38227;BME280;24026;49.446;8.576;2023-11-21T06:27:38;100021.88;;;14.12;62.09
38227;BME280;24026;49.446;8.576;2023-11-21T06:29:59;100023.47;;;14.13;62.13
38227;BME280;24026;49.446;8.576;2023-11-21T06:32:19;100021.63;;;14.14;62.06
38227;BME280;24026;49.446;8.576;2023-11-21T06:34:42;100027.75;;;14.14;62.03
38227;BME280;24026;49.446;8.576;2023-11-21T06:37:03;100036.28;;;14.16;62.11
38227;BME280;24026;49.446;8.576;2023-11-21T06:39:24;100040.56;;;14.17;62.03
38227;BME280;24026;49.446;8.576;2023-11-21T06:41:44;100039.50;;;14.18;62.31
38227;BME280;24026;49.446;8.576;2023-11-21T06:44:05;100040.03;;;14.20;62.16
38227;BME280;24026;49.446;8.576;2023-11-21T06:46:25;100048.84;;;14.21;62.33
38227;BME280;24026;49.446;8.576;2023-11-21T06:48:45;100045.88;;;14.22;62.40
38227;BME280;24026;49.446;8.576;2023-11-21T06:51:06;100057.09;;;14.24;62.37
38227;BME280;24026;49.446;8.576;2023-11-21T06:53:27;100054.44;;;14.24;62.25
38227;BME280;24026;49.446;8.576;2023-11-21T06:55:47;100059.50;;;14.26;62.11
38227;BME280;24026;49.446;8.576;2023-11-21T06:58:08;100059.50;;;14.26;62.31
38227;BME280;24026;49.446;8.576;2023-11-21T07:05:00;100070.19;;;14.26;62.34
38227;BME280;24026;49.446;8.576;2023-11-21T07:10:29;100068.88;;;14.23;62.44
38227;BME280;24026;49.446;8.576;2023-11-21T07:16:08;100083.56;;;14.21;62.63
38227;BME280;24026;49.446;8.576;2023-11-21T07:18:36;100081.69;;;14.21;62.60
38227;BME280;24026;49.446;8.576;2023-11-21T07:21:00;100094.78;;;14.23;62.76
38227;BME280;24026;49.446;8.576;2023-11-21T07:23:22;100098.00;;;14.25;62.78
38227;BME280;24026;49.446;8.576;2023-11-21T07:25:42;100108.41;;;14.26;62.42
38227;BME280;24026;49.446;8.576;2023-11-21T07:28:03;100102.78;;;14.28;62.61
38227;BME280;24026;49.446;8.576;2023-11-21T07:30:25;100102.53;;;14.30;62.59
38227;BME280;24026;49.446;8.576;2023-11-21T07:32:46;100106.81;;;14.31;62.64
38227;BME280;24026;49.446;8.576;2023-11-21T07:35:08;100108.41;;;14.32;62.62
38227;BME280;24026;49.446;8.576;2023-11-21T07:37:29;100105.44;;;14.33;62.76
38227;BME280;24026;49.446;8.576;2023-11-21T07:39:51;100116.69;;;14.35;62.41
38227;BME280;24026;49.446;8.576;2023-11-21T07:42:19;100113.75;;;14.37;62.62
38227;BME280;24026;49.446;8.576;2023-11-21T07:45:00;100118.81;;;14.38;62.62
38227;BME280;24026;49.446;8.576;2023-11-21T07:47:25;100115.84;;;14.40;62.74
38227;BME280;24026;49.446;8.576;2023-11-21T07:49:50;100119.84;;;14.42;62.77
38227;BME280;24026;49.446;8.576;2023-11-21T07:52:10;100123.88;;;14.45;62.60
38227;BME280;24026;49.446;8.576;2023-11-21T07:54:31;100123.56;;;14.46;62.74
38227;BME280;24026;49.446;8.576;2023-11-21T07:56:51;100127.06;;;14.47;62.59
38227;BME280;24026;49.446;8.576;2023-11-21T07:59:12;100130.25;;;14.49;62.52
38227;BME280;24026;49.446;8.576;2023-11-21T08:01:34;100133.47;;;14.51;62.53
38227;BME280;24026;49.446;8.576;2023-11-21T08:04:05;100136.66;;;14.53;62.39
38227;BME280;24026;49.446;8.576;2023-11-21T08:22:18;100141.44;;;14.56;62.33
38227;BME280;24026;49.446;8.576;2023-11-21T08:30:56;100156.72;;;14.61;62.47
38227;BME280;24026;49.446;8.576;2023-11-21T08:39:12;100166.09;;;14.63;62.15
38227;BME280;24026;49.446;8.576;2023-11-21T08:48:19;100173.81;;;14.60;62.24
38227;BME280;24026;49.446;8.576;2023-11-21T08:50:42;100177.31;;;14.60;62.43
38227;BME280;24026;49.446;8.576;2023-11-21T08:59:21;100191.22;;;14.62;62.48
38227;BME280;24026;49.446;8.576;2023-11-21T09:09:33;100207.00;;;14.64;62.43
38227;BME280;24026;49.446;8.576;2023-11-21T09:15:37;100209.41;;;14.66;62.43
38227;BME280;24026;49.446;8.576;2023-11-21T09:18:04;100211.81;;;14.67;62.32
38227;BME280;24026;49.446;8.576;2023-11-21T09:20:57;100213.94;;;14.70;62.56
38227;BME280;24026;49.446;8.576;2023-11-21T09:23:25;100219.81;;;14.72;62.47
38227;BME280;24026;49.446;8.576;2023-11-21T09:25:46;100225.69;;;14.74;62.32
38227;BME280;24026;49.446;8.576;2023-11-21T09:28:08;100220.31;;;14.74;62.37
38227;BME280;24026;49.446;8.576;2023-11-21T09:30:28;100226.19;;;14.76;62.40
38227;BME280;24026;49.446;8.576;2023-11-21T09:32:49;100229.69;;;14.77;62.34
38227;BME280;24026;49.446;8.576;2023-11-21T09:35:10;100233.16;;;14.77;62.28
38227;BME280;24026;49.446;8.576;2023-11-21T09:37:31;100232.91;;;14.79;62.52
38227;BME280;24026;49.446;8.576;2023-11-21T09:40:03;100239.81;;;14.80;62.16
38227;BME280;24026;49.446;8.576;2023-11-21T09:42:32;100247.59;;;14.81;62.33
38227;BME280;24026;49.446;8.576;2023-11-21T09:47:35;100254.03;;;14.80;62.22
38227;BME280;24026;49.446;8.576;2023-11-21T09:50:01;100254.28;;;14.79;62.20
38227;BME280;24026;49.446;8.576;2023-11-21T09:52:27;100262.06;;;14.80;62.17
38227;BME280;24026;49.446;8.576;2023-11-21T09:54:49;100253.19;;;14.80;62.37
38227;BME280;24026;49.446;8.576;2023-11-21T09:57:38;100257.75;;;14.79;62.52
38227;BME280;24026;49.446;8.576;2023-11-21T10:00:22;100260.97;;;14.81;62.46
38227;BME280;24026;49.446;8.576;2023-11-21T10:13:00;100281.56;;;14.81;62.63
38227;BME280;24026;49.446;8.576;2023-11-21T10:16:14;100274.34;;;14.81;62.67
38227;BME280;24026;49.446;8.576;2023-11-21T10:18:49;100278.34;;;14.84;62.33
38227;BME280;24026;49.446;8.576;2023-11-21T10:21:27;100275.69;;;14.84;62.64
38227;BME280;24026;49.446;8.576;2023-11-21T10:23:58;100275.94;;;14.82;62.49
38227;BME280;24026;49.446;8.576;2023-11-21T10:26:20;100276.47;;;14.85;62.44
38227;BME280;24026;49.446;8.576;2023-11-21T10:28:58;100276.19;;;14.86;62.35
38227;BME280;24026;49.446;8.576;2023-11-21T10:31:22;100273.53;;;14.86;62.32
38227;BME280;24026;49.446;8.576;2023-11-21T10:33:44;100269.25;;;14.85;62.55
38227;BME280;24026;49.446;8.576;2023-11-21T10:36:05;100271.66;;;14.87;62.43
38227;BME280;24026;49.446;8.576;2023-11-21T10:38:33;100277.53;;;14.89;62.29
38227;BME280;24026;49.446;8.576;2023-11-21T10:40:54;100275.66;;;14.89;62.33
38227;BME280;24026;49.446;8.576;2023-11-21T10:43:25;100278.59;;;14.88;62.27
38227;BME280;24026;49.446;8.576;2023-11-21T10:48:14;100279.94;;;14.90;62.35
38227;BME280;24026;49.446;8.576;2023-11-21T10:50:54;100287.44;;;14.88;62.26
38227;BME280;24026;49.446;8.576;2023-11-21T10:53:22;100287.44;;;14.88;62.23
38227;BME280;24026;49.446;8.576;2023-11-21T10:55:46;100302.69;;;14.88;62.44
38227;BME280;24026;49.446;8.576;2023-11-21T10:58:14;100301.91;;;14.87;62.61
38227;BME280;24026;49.446;8.576;2023-11-21T11:00:40;100297.06;;;14.89;62.33
38227;BME280;24026;49.446;8.576;2023-11-21T11:03:01;100300.81;;;14.88;62.25
38227;BME280;24026;49.446;8.576;2023-11-21T11:05:23;100302.69;;;14.88;62.36
38227;BME280;24026;49.446;8.576;2023-11-21T11:07:58;100304.06;;;14.85;62.57
38227;BME280;24026;49.446;8.576;2023-11-21T11:10:21;100307.78;;;14.84;62.55
38227;BME280;24026;49.446;8.576;2023-11-21T11:12:46;100303.50;;;14.83;62.61
38227;BME280;24026;49.446;8.576;2023-11-21T11:15:08;100304.59;;;14.82;62.54
38227;BME280;24026;49.446;8.576;2023-11-21T11:17:47;100303.78;;;14.81;62.69
38227;BME280;24026;49.446;8.576;2023-11-21T11:20:11;100308.84;;;14.83;62.53
38227;BME280;24026;49.446;8.576;2023-11-21T11:30:47;100308.31;;;14.81;62.80
38227;BME280;24026;49.446;8.576;2023-11-21T11:36:00;100310.75;;;14.77;62.98
38227;BME280;24026;49.446;8.576;2023-11-21T11:38:22;100315.31;;;14.77;63.02
38227;BME280;24026;49.446;8.576;2023-11-21T11:40:47;100307.28;;;14.77;63.09
38227;BME280;24026;49.446;8.576;2023-11-21T11:43:08;100309.13;;;14.76;62.87
38227;BME280;24026;49.446;8.576;2023-11-21T11:45:34;100310.47;;;14.79;63.06
38227;BME280;24026;49.446;8.576;2023-11-21T11:48:02;100304.34;;;14.78;62.97
38227;BME280;24026;49.446;8.576;2023-11-21T11:50:23;100316.63;;;14.79;62.94
38227;BME280;24026;49.446;8.576;2023-11-21T11:52:50;100308.31;;;14.81;62.99
38227;BME280;24026;49.446;8.576;2023-11-21T11:55:14;100314.19;;;14.83;62.99
38227;BME280;24026;49.446;8.576;2023-11-21T11:57:39;100318.50;;;14.84;62.91
38227;BME280;24026;49.446;8.576;2023-11-21T12:00:19;100313.94;;;14.85;62.78
38227;BME280;24026;49.446;8.576;2023-11-21T12:02:47;100316.34;;;14.86;62.74
38227;BME280;24026;49.446;8.576;2023-11-21T12:05:12;100321.16;;;14.84;62.64
38227;BME280;24026;49.446;8.576;2023-11-21T12:07:43;100320.63;;;14.87;62.71
38227;BME280;24026;49.446;8.576;2023-11-21T12:10:06;100318.75;;;14.88;62.78
38227;BME280;24026;49.446;8.576;2023-11-21T12:12:26;100323.03;;;14.89;62.62
38227;BME280;24026;49.446;8.576;2023-11-21T12:14:49;100333.75;;;14.89;62.60
38227;BME280;24026;49.446;8.576;2023-11-21T12:17:14;100329.19;;;14.89;62.67
38227;BME280;24026;49.446;8.576;2023-11-21T12:19:35;100322.75;;;14.90;62.40
38227;BME280;24026;49.446;8.576;2023-11-21T12:21:55;100328.63;;;14.92;62.43
38227;BME280;24026;49.446;8.576;2023-11-21T12:24:16;100332.91;;;14.93;62.55
38227;BME280;24026;49.446;8.576;2023-11-21T12:26:37;100330.78;;;14.95;62.43
38227;BME280;24026;49.446;8.576;2023-11-21T12:28:58;100331.03;;;14.99;62.60
38227;BME280;24026;49.446;8.576;2023-11-21T12:31:19;100327.00;;;15.01;62.24
38227;BME280;24026;49.446;8.576;2023-11-21T12:33:40;100332.06;;;15.03;62.45
38227;BME280;24026;49.446;8.576;2023-11-21T12:36:01;100321.91;;;15.05;62.37
38227;BME280;24026;49.446;8.576;2023-11-21T12:38:21;100328.84;;;15.06;62.36
38227;BME280;24026;49.446;8.576;2023-11-21T12:40:44;100327.53;;;15.09;62.20
38227;BME280;24026;49.446;8.576;2023-11-21T12:43:09;100343.59;;;15.09;62.18
38227;BME280;24026;49.446;8.576;2023-11-21T12:45:30;100339.28;;;15.08;62.05
38227;BME280;24026;49.446;8.576;2023-11-21T12:47:54;100337.41;;;15.08;62.36
38227;BME280;24026;49.446;8.576;2023-11-21T12:50:15;100344.38;;;15.09;62.47
38227;BME280;24026;49.446;8.576;2023-11-21T12:52:51;100350.53;;;15.05;62.36
38227;BME280;24026;49.446;8.576;2023-11-21T12:55:20;100349.47;;;15.06;62.59
38227;BME280;24026;49.446;8.576;2023-11-21T12:57:55;100359.91;;;15.07;62.49
38227;BME280;24026;49.446;8.576;2023-11-21T13:00:35;100358.81;;;15.08;62.22
38227;BME280;24026;49.446;8.576;2023-11-21T13:02:59;100362.31;;;15.09;62.18
38227;BME280;24026;49.446;8.576;2023-11-21T13:08:15;100355.88;;;15.10;62.27
38227;BME280;24026;49.446;8.576;2023-11-21T13:10:41;100358.00;;;15.13;62.00
38227;BME280;24026;49.446;8.576;2023-11-21T13:13:06;100356.94;;;15.14;61.84
38227;BME280;24026;49.446;8.576;2023-11-21T13:15:29;100361.22;;;15.15;62.06
38227;BME280;24026;49.446;8.576;2023-11-21T13:17:51;100368.19;;;15.16;61.81
38227;BME280;24026;49.446;8.576;2023-11-21T13:20:16;100367.13;;;15.17;61.81
38227;BME280;24026;49.446;8.576;2023-11-21T13:22:37;100370.59;;;15.17;61.86
38227;BME280;24026;49.446;8.576;2023-11-21T13:24:58;100371.38;;;15.18;61.77
38227;BME280;24026;49.446;8.576;2023-11-21T13:27:19;100374.59;;;15.20;61.60
38227;BME280;24026;49.446;8.576;2023-11-21T13:29:46;100374.59;;;15.20;61.59
38227;BME280;24026;49.446;8.576;2023-11-21T13:32:06;100374.59;;;15.20;61.50
38227;BME280;24026;49.446;8.576;2023-11-21T13:34:27;100378.09;;;15.21;61.64
38227;BME280;24026;49.446;8.576;2023-11-21T13:36:55;100376.19;;;15.21;61.36
38227;BME280;24026;49.446;8.576;2023-11-21T13:39:33;100375.13;;;15.22;61.30
38227;BME280;24026;49.446;8.576;2023-11-21T13:42:22;100378.09;;;15.21;61.05
38227;BME280;24026;49.446;8.576;2023-11-21T13:44:58;100379.41;;;15.23;60.76
38227;BME280;24026;49.446;8.576;2023-11-21T13:47:19;100380.50;;;15.22;60.86
38227;BME280;24026;49.446;8.576;2023-11-21T13:49:51;100383.16;;;15.22;61.04
38227;BME280;24026;49.446;8.576;2023-11-21T13:52:14;100387.44;;;15.23;60.88
38227;BME280;24026;49.446;8.576;2023-11-21T13:54:51;100389.03;;;15.24;60.74
38227;BME280;24026;49.446;8.576;2023-11-21T13:57:33;100402.44;;;15.24;60.43
38227;BME280;24026;49.446;8.576;2023-11-21T14:00:21;100405.91;;;15.25;60.56
38227;BME280;24026;49.446;8.576;2023-11-21T14:06:52;100408.03;;;15.28;60.72
38227;BME280;24026;49.446;8.576;2023-11-21T14:15:01;100421.13;;;15.34;60.22
38227;BME280;24026;49.446;8.576;2023-11-21T14:17:27;100419.25;;;15.35;60.10
38227;BME280;24026;49.446;8.576;2023-11-21T14:19:49;100425.44;;;15.35;60.17
38227;BME280;24026;49.446;8.576;2023-11-21T14:22:10;100427.84;;;15.37;60.19